Jacksonville, AR

6:04 PM CST on February 28, 2015 (GMT -0600)
Shiloh | Change Station
CLOSE
Current Station
Personal Weather Station
Location: Cabot, AR
Elevation: 295 ft
Nearby Weather Stations

Elev 295 ft 34.98 °N, 92.00 °W | Updated 4 minutes ago

Scattered Clouds
Scattered Clouds
35.1 °F
Feels Like 31 °F
N
4.5
Wind Variable Wind from North
Gusts 5.4 mph

Today
High -- | Low -- °F
--% Chance of Precip.
Yesterday
High -- | Low -- °F
Precip. -- in
6:39 AM 6:03 PM
Waxing Gibbous, 81% visible
Pressure 30.42 in
Visibility 10.0 miles
Clouds Scattered Clouds 9000 ft
Windchill 31 °F
Dew Point 21 °F
Humidity 56%
Rainfall 0.00 in
Snow Depth Not available.
UV 0 out of 12
Pollen 4.60 out of 12
Air Quality Not available.
Flu Activity Not available.
METAR KLRF 282358Z AUTO 07006KT 10SM SCT090 02/M05 A3040 RMK AO2 SLP301 60000 T00211052 10038 21000 53001

More Conditions Fewer Conditions

Pressure 30.42 in
Visibility 10.0 miles
Clouds Scattered Clouds 9000 ft
Windchill 31 °F
Dew Point 21 °F
Humidity 56%
Rainfall 0.00 in
Snow Depth Not available.
UV 0 out of 12
Pollen 4.60 out of 12
Air Quality Not available.
Flu Activity Not available.
METAR KLRF 282358Z AUTO 07006KT 10SM SCT090 02/M05 A3040 RMK AO2 SLP301 60000 T00211052 10038 21000 53001

More Conditions Fewer Conditions

10-Day Weather Forecast

Almanac

Astronomy

Feb. 28, 2015 Rise Set
Actual Time
Civil Twilight
Nautical Twilight
Astronomical Twilight
Moon
Length of Visible Light
Length of Day
Tomorrow will be .
, % of the Moon is Illuminated

Today's Extremes

State Highs State Lows

Community

WunderPhotos

Upload Photos

1,801,176 photos uploaded!

WunderBlogs® & News

Nearby

Air Quality

  Air Quality AQ Index Pollutant
Not available.

Snow Depth

Station Depth Elevation

Earthquake Activity

City Distance Mag. Time & Date
Minimum magnitude displayed is 2.5.

Coastal Water Temperatures

Place Temperature

Nearby Weather Stations